Terminal Aerodrome Forecast
Issued by NWS

Home | Current Version | Previous Version | Text Only | Print | Product List | Glossary On
Versions: 1 2 3 4 5 6 7 8 9 10 11 12 13 14 15 16 17 18 19 20 21 22 23 24 25 26 27 28 29 30 31 32 33 34 35 36 37 38 39 40 41 42 43 44 45 46 47 48 49 50
000
FTUS41 KOKX 200556
TAFTEB
TAF
KTEB 200556Z 2006/2112 08004KT 1SM -DZ BR OVC005
      TEMPO 2007/2011 OVC004
     FM201200 13004KT 2SM BR OVC007
     FM201500 15006KT 4SM BR OVC015
     FM201800 18005KT 5SM SHRA SCT025 BKN040 PROB30 2021/2024 2SM TS
      BKN020CB
     FM210000 21004KT 5SM -SHRA SCT015 BKN040 PROB30 2100/2102 4SM
      TS BKN015CB
     FM210400 25004KT P6SM VCSH SCT015 BKN090
     FM211000 32008KT P6SM VCSH SCT025 BKN050=

USA.gov is the U.S. government's official web portal to all federal, state and local government web resources and services.